sensor_id;sensor_type;location;lat;lon;timestamp;P1;durP1;ratioP1;P2;durP2;ratioP2
12224;SDS011;6175;50.956;11.064;2023-11-19T00:00:18;0.50;;;0.50;;
12224;SDS011;6175;50.956;11.064;2023-11-19T00:02:45;0.57;;;0.57;;
12224;SDS011;6175;50.956;11.064;2023-11-19T00:05:14;0.68;;;0.65;;
12224;SDS011;6175;50.956;11.064;2023-11-19T00:07:41;0.55;;;0.55;;
12224;SDS011;6175;50.956;11.064;2023-11-19T00:10:09;0.60;;;0.60;;
12224;SDS011;6175;50.956;11.064;2023-11-19T00:12:37;0.50;;;0.50;;
12224;SDS011;6175;50.956;11.064;2023-11-19T00:15:05;0.50;;;0.50;;
12224;SDS011;6175;50.956;11.064;2023-11-19T00:17:36;0.60;;;0.60;;
12224;SDS011;6175;50.956;11.064;2023-11-19T00:20:04;0.60;;;0.60;;
12224;SDS011;6175;50.956;11.064;2023-11-19T00:22:35;1.17;;;1.08;;
12224;SDS011;6175;50.956;11.064;2023-11-19T00:25:02;0.60;;;0.60;;
12224;SDS011;6175;50.956;11.064;2023-11-19T00:27:30;1.17;;;0.75;;
12224;SDS011;6175;50.956;11.064;2023-11-19T00:29:57;0.98;;;0.73;;
12224;SDS011;6175;50.956;11.064;2023-11-19T00:32:24;0.65;;;0.40;;
12224;SDS011;6175;50.956;11.064;2023-11-19T00:34:51;0.50;;;0.50;;
12224;SDS011;6175;50.956;11.064;2023-11-19T00:37:17;0.63;;;0.60;;
12224;SDS011;6175;50.956;11.064;2023-11-19T00:39:46;0.43;;;0.43;;
12224;SDS011;6175;50.956;11.064;2023-11-19T00:42:13;0.50;;;0.50;;
12224;SDS011;6175;50.956;11.064;2023-11-19T00:44:40;0.70;;;0.70;;
12224;SDS011;6175;50.956;11.064;2023-11-19T00:47:07;0.73;;;0.73;;
12224;SDS011;6175;50.956;11.064;2023-11-19T00:49:34;0.45;;;0.45;;
12224;SDS011;6175;50.956;11.064;2023-11-19T00:52:01;0.60;;;0.60;;
12224;SDS011;6175;50.956;11.064;2023-11-19T00:54:28;0.40;;;0.40;;
12224;SDS011;6175;50.956;11.064;2023-11-19T00:56:57;0.70;;;0.70;;
12224;SDS011;6175;50.956;11.064;2023-11-19T00:59:24;0.60;;;0.60;;
12224;SDS011;6175;50.956;11.064;2023-11-19T01:01:51;0.60;;;0.60;;
12224;SDS011;6175;50.956;11.064;2023-11-19T01:04:18;0.52;;;0.52;;
12224;SDS011;6175;50.956;11.064;2023-11-19T01:06:46;0.68;;;0.68;;
12224;SDS011;6175;50.956;11.064;2023-11-19T01:09:13;0.60;;;0.57;;
12224;SDS011;6175;50.956;11.064;2023-11-19T01:11:40;0.50;;;0.50;;
12224;SDS011;6175;50.956;11.064;2023-11-19T01:14:09;0.65;;;0.65;;
12224;SDS011;6175;50.956;11.064;2023-11-19T01:16:36;0.70;;;0.70;;
12224;SDS011;6175;50.956;11.064;2023-11-19T01:19:03;0.50;;;0.50;;
12224;SDS011;6175;50.956;11.064;2023-11-19T01:21:30;0.50;;;0.50;;
12224;SDS011;6175;50.956;11.064;2023-11-19T01:23:58;2.75;;;0.80;;
12224;SDS011;6175;50.956;11.064;2023-11-19T01:26:26;0.68;;;0.68;;
12224;SDS011;6175;50.956;11.064;2023-11-19T01:28:53;0.60;;;0.60;;
12224;SDS011;6175;50.956;11.064;2023-11-19T01:31:21;0.73;;;0.73;;
12224;SDS011;6175;50.956;11.064;2023-11-19T01:33:49;0.50;;;0.50;;
12224;SDS011;6175;50.956;11.064;2023-11-19T01:36:16;0.45;;;0.43;;
12224;SDS011;6175;50.956;11.064;2023-11-19T01:38:43;0.50;;;0.50;;
12224;SDS011;6175;50.956;11.064;2023-11-19T01:41:10;0.60;;;0.60;;
12224;SDS011;6175;50.956;11.064;2023-11-19T01:43:38;0.40;;;0.40;;
12224;SDS011;6175;50.956;11.064;2023-11-19T01:46:06;0.50;;;0.50;;
12224;SDS011;6175;50.956;11.064;2023-11-19T01:48:37;0.60;;;0.60;;
12224;SDS011;6175;50.956;11.064;2023-11-19T01:51:07;0.50;;;0.50;;
12224;SDS011;6175;50.956;11.064;2023-11-19T01:53:35;0.70;;;0.70;;
12224;SDS011;6175;50.956;11.064;2023-11-19T01:56:04;0.50;;;0.50;;
12224;SDS011;6175;50.956;11.064;2023-11-19T01:58:34;0.60;;;0.47;;
12224;SDS011;6175;50.956;11.064;2023-11-19T02:01:01;0.40;;;0.40;;
12224;SDS011;6175;50.956;11.064;2023-11-19T02:03:29;2.17;;;0.50;;
12224;SDS011;6175;50.956;11.064;2023-11-19T02:05:59;0.52;;;0.50;;
12224;SDS011;6175;50.956;11.064;2023-11-19T02:08:27;0.50;;;0.50;;
12224;SDS011;6175;50.956;11.064;2023-11-19T02:10:54;0.30;;;0.30;;
12224;SDS011;6175;50.956;11.064;2023-11-19T02:13:22;0.40;;;0.40;;
12224;SDS011;6175;50.956;11.064;2023-11-19T02:15:50;0.30;;;0.30;;
12224;SDS011;6175;50.956;11.064;2023-11-19T02:18:18;0.32;;;0.32;;
12224;SDS011;6175;50.956;11.064;2023-11-19T02:20:47;0.30;;;0.30;;
12224;SDS011;6175;50.956;11.064;2023-11-19T02:23:16;0.32;;;0.32;;
12224;SDS011;6175;50.956;11.064;2023-11-19T02:25:43;0.30;;;0.30;;
12224;SDS011;6175;50.956;11.064;2023-11-19T02:28:18;0.30;;;0.30;;
12224;SDS011;6175;50.956;11.064;2023-11-19T02:30:45;0.40;;;0.40;;
12224;SDS011;6175;50.956;11.064;2023-11-19T02:33:12;0.32;;;0.32;;
12224;SDS011;6175;50.956;11.064;2023-11-19T02:35:40;0.40;;;0.40;;
12224;SDS011;6175;50.956;11.064;2023-11-19T02:38:07;0.50;;;0.50;;
12224;SDS011;6175;50.956;11.064;2023-11-19T02:40:34;0.30;;;0.30;;
12224;SDS011;6175;50.956;11.064;2023-11-19T02:43:02;0.43;;;0.30;;
12224;SDS011;6175;50.956;11.064;2023-11-19T02:45:31;0.30;;;0.30;;
12224;SDS011;6175;50.956;11.064;2023-11-19T02:47:58;0.57;;;0.57;;
12224;SDS011;6175;50.956;11.064;2023-11-19T02:50:27;0.40;;;0.40;;
12224;SDS011;6175;50.956;11.064;2023-11-19T02:52:55;0.40;;;0.40;;
12224;SDS011;6175;50.956;11.064;2023-11-19T02:55:22;0.30;;;0.30;;
12224;SDS011;6175;50.956;11.064;2023-11-19T02:57:50;0.40;;;0.40;;
12224;SDS011;6175;50.956;11.064;2023-11-19T03:00:18;0.40;;;0.30;;
12224;SDS011;6175;50.956;11.064;2023-11-19T03:02:50;0.45;;;0.45;;
12224;SDS011;6175;50.956;11.064;2023-11-19T03:05:24;0.95;;;0.50;;
12224;SDS011;6175;50.956;11.064;2023-11-19T03:07:51;0.40;;;0.40;;
12224;SDS011;6175;50.956;11.064;2023-11-19T03:10:25;0.50;;;0.50;;
12224;SDS011;6175;50.956;11.064;2023-11-19T03:12:51;0.30;;;0.30;;
12224;SDS011;6175;50.956;11.064;2023-11-19T03:15:20;0.50;;;0.50;;
12224;SDS011;6175;50.956;11.064;2023-11-19T03:17:46;0.30;;;0.30;;
12224;SDS011;6175;50.956;11.064;2023-11-19T03:20:15;0.40;;;0.40;;
12224;SDS011;6175;50.956;11.064;2023-11-19T03:22:42;0.40;;;0.40;;
12224;SDS011;6175;50.956;11.064;2023-11-19T03:25:09;0.40;;;0.40;;
12224;SDS011;6175;50.956;11.064;2023-11-19T03:27:38;0.45;;;0.40;;
12224;SDS011;6175;50.956;11.064;2023-11-19T03:30:07;0.30;;;0.30;;
12224;SDS011;6175;50.956;11.064;2023-11-19T03:32:35;0.35;;;0.35;;
12224;SDS011;6175;50.956;11.064;2023-11-19T03:35:04;0.55;;;0.35;;
12224;SDS011;6175;50.956;11.064;2023-11-19T03:37:35;0.30;;;0.30;;
12224;SDS011;6175;50.956;11.064;2023-11-19T03:40:03;0.30;;;0.30;;
12224;SDS011;6175;50.956;11.064;2023-11-19T03:42:31;0.30;;;0.30;;
12224;SDS011;6175;50.956;11.064;2023-11-19T03:44:58;0.30;;;0.30;;
12224;SDS011;6175;50.956;11.064;2023-11-19T03:47:25;0.30;;;0.30;;
12224;SDS011;6175;50.956;11.064;2023-11-19T03:49:53;0.28;;;0.28;;
12224;SDS011;6175;50.956;11.064;2023-11-19T03:52:20;0.30;;;0.30;;
12224;SDS011;6175;50.956;11.064;2023-11-19T03:54:49;0.30;;;0.30;;
12224;SDS011;6175;50.956;11.064;2023-11-19T03:57:16;0.30;;;0.30;;
12224;SDS011;6175;50.956;11.064;2023-11-19T03:59:43;0.30;;;0.30;;
12224;SDS011;6175;50.956;11.064;2023-11-19T04:02:10;0.30;;;0.30;;
12224;SDS011;6175;50.956;11.064;2023-11-19T04:04:38;0.30;;;0.30;;
12224;SDS011;6175;50.956;11.064;2023-11-19T04:07:05;0.40;;;0.40;;
12224;SDS011;6175;50.956;11.064;2023-11-19T04:09:32;0.40;;;0.40;;
12224;SDS011;6175;50.956;11.064;2023-11-19T04:12:01;0.40;;;0.40;;
12224;SDS011;6175;50.956;11.064;2023-11-19T04:14:29;0.93;;;0.47;;
12224;SDS011;6175;50.956;11.064;2023-11-19T04:16:56;1.00;;;0.40;;
12224;SDS011;6175;50.956;11.064;2023-11-19T04:19:23;0.40;;;0.40;;
12224;SDS011;6175;50.956;11.064;2023-11-19T04:21:50;0.40;;;0.40;;
12224;SDS011;6175;50.956;11.064;2023-11-19T04:24:17;0.52;;;0.52;;
12224;SDS011;6175;50.956;11.064;2023-11-19T04:26:45;0.30;;;0.30;;
12224;SDS011;6175;50.956;11.064;2023-11-19T04:29:14;1.15;;;0.45;;
12224;SDS011;6175;50.956;11.064;2023-11-19T04:31:42;0.85;;;0.50;;
12224;SDS011;6175;50.956;11.064;2023-11-19T04:34:10;0.50;;;0.45;;
12224;SDS011;6175;50.956;11.064;2023-11-19T04:36:38;0.30;;;0.30;;
12224;SDS011;6175;50.956;11.064;2023-11-19T04:39:05;0.43;;;0.43;;
12224;SDS011;6175;50.956;11.064;2023-11-19T04:41:41;0.40;;;0.40;;
12224;SDS011;6175;50.956;11.064;2023-11-19T04:44:13;0.40;;;0.40;;
12224;SDS011;6175;50.956;11.064;2023-11-19T04:46:40;0.50;;;0.50;;
12224;SDS011;6175;50.956;11.064;2023-11-19T04:49:09;0.40;;;0.40;;
12224;SDS011;6175;50.956;11.064;2023-11-19T04:51:38;0.50;;;0.50;;
12224;SDS011;6175;50.956;11.064;2023-11-19T04:54:05;0.60;;;0.55;;
12224;SDS011;6175;50.956;11.064;2023-11-19T04:56:33;0.30;;;0.30;;
12224;SDS011;6175;50.956;11.064;2023-11-19T04:59:01;0.50;;;0.50;;
12224;SDS011;6175;50.956;11.064;2023-11-19T05:01:29;0.50;;;0.50;;
12224;SDS011;6175;50.956;11.064;2023-11-19T05:03:57;0.50;;;0.50;;
12224;SDS011;6175;50.956;11.064;2023-11-19T05:06:26;0.50;;;0.50;;
12224;SDS011;6175;50.956;11.064;2023-11-19T05:08:54;0.40;;;0.40;;
12224;SDS011;6175;50.956;11.064;2023-11-19T05:11:21;0.40;;;0.40;;
12224;SDS011;6175;50.956;11.064;2023-11-19T05:13:48;0.38;;;0.38;;
12224;SDS011;6175;50.956;11.064;2023-11-19T05:16:16;0.80;;;0.40;;
12224;SDS011;6175;50.956;11.064;2023-11-19T05:18:45;0.57;;;0.57;;
12224;SDS011;6175;50.956;11.064;2023-11-19T05:21:12;0.40;;;0.40;;
12224;SDS011;6175;50.956;11.064;2023-11-19T05:23:39;0.50;;;0.50;;
12224;SDS011;6175;50.956;11.064;2023-11-19T05:26:07;0.52;;;0.52;;
12224;SDS011;6175;50.956;11.064;2023-11-19T05:28:35;0.50;;;0.50;;
12224;SDS011;6175;50.956;11.064;2023-11-19T05:31:04;0.40;;;0.40;;
12224;SDS011;6175;50.956;11.064;2023-11-19T05:33:32;0.45;;;0.45;;
12224;SDS011;6175;50.956;11.064;2023-11-19T05:36:00;0.50;;;0.50;;
12224;SDS011;6175;50.956;11.064;2023-11-19T05:38:29;0.50;;;0.50;;
12224;SDS011;6175;50.956;11.064;2023-11-19T05:40:56;0.40;;;0.40;;
12224;SDS011;6175;50.956;11.064;2023-11-19T05:43:23;0.55;;;0.55;;
12224;SDS011;6175;50.956;11.064;2023-11-19T05:45:50;0.50;;;0.50;;
12224;SDS011;6175;50.956;11.064;2023-11-19T05:48:17;0.52;;;0.52;;
12224;SDS011;6175;50.956;11.064;2023-11-19T05:50:44;0.47;;;0.47;;
12224;SDS011;6175;50.956;11.064;2023-11-19T05:53:13;1.02;;;0.47;;
12224;SDS011;6175;50.956;11.064;2023-11-19T05:55:40;0.50;;;0.50;;
12224;SDS011;6175;50.956;11.064;2023-11-19T05:58:13;0.50;;;0.50;;
12224;SDS011;6175;50.956;11.064;2023-11-19T06:00:41;0.50;;;0.50;;
12224;SDS011;6175;50.956;11.064;2023-11-19T06:03:08;1.08;;;0.50;;
12224;SDS011;6175;50.956;11.064;2023-11-19T06:05:35;0.50;;;0.50;;
12224;SDS011;6175;50.956;11.064;2023-11-19T06:08:02;0.77;;;0.50;;
12224;SDS011;6175;50.956;11.064;2023-11-19T06:10:33;0.40;;;0.40;;
12224;SDS011;6175;50.956;11.064;2023-11-19T06:13:00;0.40;;;0.40;;
12224;SDS011;6175;50.956;11.064;2023-11-19T06:15:30;0.50;;;0.50;;
12224;SDS011;6175;50.956;11.064;2023-11-19T06:17:58;0.50;;;0.50;;
12224;SDS011;6175;50.956;11.064;2023-11-19T06:20:26;0.50;;;0.50;;
12224;SDS011;6175;50.956;11.064;2023-11-19T06:22:54;0.50;;;0.50;;
12224;SDS011;6175;50.956;11.064;2023-11-19T06:25:21;0.52;;;0.52;;
12224;SDS011;6175;50.956;11.064;2023-11-19T06:27:51;0.50;;;0.50;;
12224;SDS011;6175;50.956;11.064;2023-11-19T06:30:18;0.80;;;0.60;;
12224;SDS011;6175;50.956;11.064;2023-11-19T06:32:46;0.80;;;0.80;;
12224;SDS011;6175;50.956;11.064;2023-11-19T06:35:13;0.50;;;0.50;;
12224;SDS011;6175;50.956;11.064;2023-11-19T06:37:41;0.68;;;0.57;;
12224;SDS011;6175;50.956;11.064;2023-11-19T06:40:08;0.60;;;0.60;;
12224;SDS011;6175;50.956;11.064;2023-11-19T06:42:37;0.88;;;0.88;;
12224;SDS011;6175;50.956;11.064;2023-11-19T06:45:07;0.65;;;0.60;;
12224;SDS011;6175;50.956;11.064;2023-11-19T06:47:34;0.82;;;0.60;;
12224;SDS011;6175;50.956;11.064;2023-11-19T06:50:01;0.93;;;0.90;;
12224;SDS011;6175;50.956;11.064;2023-11-19T06:52:31;0.60;;;0.60;;
12224;SDS011;6175;50.956;11.064;2023-11-19T06:54:57;0.93;;;0.75;;
12224;SDS011;6175;50.956;11.064;2023-11-19T06:57:25;0.90;;;0.90;;
12224;SDS011;6175;50.956;11.064;2023-11-19T06:59:53;1.27;;;0.70;;
12224;SDS011;6175;50.956;11.064;2023-11-19T07:02:21;0.82;;;0.80;;
12224;SDS011;6175;50.956;11.064;2023-11-19T07:04:48;0.65;;;0.65;;
12224;SDS011;6175;50.956;11.064;2023-11-19T07:07:16;1.38;;;0.77;;
12224;SDS011;6175;50.956;11.064;2023-11-19T07:09:43;2.15;;;0.70;;
12224;SDS011;6175;50.956;11.064;2023-11-19T07:12:09;1.40;;;1.30;;
12224;SDS011;6175;50.956;11.064;2023-11-19T07:14:38;1.73;;;1.02;;
12224;SDS011;6175;50.956;11.064;2023-11-19T07:17:06;0.98;;;0.80;;
12224;SDS011;6175;50.956;11.064;2023-11-19T07:19:36;1.95;;;1.60;;
12224;SDS011;6175;50.956;11.064;2023-11-19T07:22:04;4.10;;;1.75;;
12224;SDS011;6175;50.956;11.064;2023-11-19T07:24:32;1.13;;;1.02;;
12224;SDS011;6175;50.956;11.064;2023-11-19T07:26:59;1.10;;;1.02;;
12224;SDS011;6175;50.956;11.064;2023-11-19T07:29:25;1.58;;;1.10;;
12224;SDS011;6175;50.956;11.064;2023-11-19T07:31:52;1.17;;;1.05;;
12224;SDS011;6175;50.956;11.064;2023-11-19T07:34:21;1.45;;;1.30;;
12224;SDS011;6175;50.956;11.064;2023-11-19T07:36:50;4.88;;;1.58;;
12224;SDS011;6175;50.956;11.064;2023-11-19T07:39:17;1.92;;;1.55;;
12224;SDS011;6175;50.956;11.064;2023-11-19T07:41:45;4.82;;;1.20;;
12224;SDS011;6175;50.956;11.064;2023-11-19T07:44:12;2.58;;;1.40;;
12224;SDS011;6175;50.956;11.064;2023-11-19T07:46:40;3.05;;;1.27;;
12224;SDS011;6175;50.956;11.064;2023-11-19T07:49:07;3.38;;;1.30;;
12224;SDS011;6175;50.956;11.064;2023-11-19T07:51:35;2.60;;;1.33;;
12224;SDS011;6175;50.956;11.064;2023-11-19T07:54:04;2.47;;;1.10;;
12224;SDS011;6175;50.956;11.064;2023-11-19T07:56:31;2.65;;;1.05;;
12224;SDS011;6175;50.956;11.064;2023-11-19T07:58:59;2.55;;;1.15;;
12224;SDS011;6175;50.956;11.064;2023-11-19T08:01:26;3.20;;;1.25;;
12224;SDS011;6175;50.956;11.064;2023-11-19T08:03:53;6.15;;;1.35;;
12224;SDS011;6175;50.956;11.064;2023-11-19T08:06:21;3.53;;;1.52;;
12224;SDS011;6175;50.956;11.064;2023-11-19T08:08:48;2.90;;;1.40;;
12224;SDS011;6175;50.956;11.064;2023-11-19T08:11:18;1.17;;;1.10;;
12224;SDS011;6175;50.956;11.064;2023-11-19T08:13:45;3.78;;;1.30;;
12224;SDS011;6175;50.956;11.064;2023-11-19T08:16:13;3.13;;;1.20;;
12224;SDS011;6175;50.956;11.064;2023-11-19T08:18:41;3.00;;;1.27;;
12224;SDS011;6175;50.956;11.064;2023-11-19T08:21:08;3.42;;;1.42;;
12224;SDS011;6175;50.956;11.064;2023-11-19T08:23:35;1.52;;;1.42;;
12224;SDS011;6175;50.956;11.064;2023-11-19T08:26:03;1.63;;;1.13;;
12224;SDS011;6175;50.956;11.064;2023-11-19T08:28:32;1.20;;;0.90;;
12224;SDS011;6175;50.956;11.064;2023-11-19T08:31:00;0.90;;;0.80;;
12224;SDS011;6175;50.956;11.064;2023-11-19T08:33:29;1.08;;;0.95;;
12224;SDS011;6175;50.956;11.064;2023-11-19T08:35:56;1.38;;;0.73;;
12224;SDS011;6175;50.956;11.064;2023-11-19T08:38:24;1.17;;;0.82;;
12224;SDS011;6175;50.956;11.064;2023-11-19T08:40:51;1.10;;;0.80;;
12224;SDS011;6175;50.956;11.064;2023-11-19T08:43:18;2.67;;;1.10;;
12224;SDS011;6175;50.956;11.064;2023-11-19T08:45:47;2.00;;;1.00;;
12224;SDS011;6175;50.956;11.064;2023-11-19T08:48:14;4.63;;;1.23;;
12224;SDS011;6175;50.956;11.064;2023-11-19T08:50:41;3.85;;;1.20;;
12224;SDS011;6175;50.956;11.064;2023-11-19T08:53:08;3.17;;;1.30;;
12224;SDS011;6175;50.956;11.064;2023-11-19T08:55:36;3.55;;;1.42;;
12224;SDS011;6175;50.956;11.064;2023-11-19T08:58:03;7.05;;;2.05;;
12224;SDS011;6175;50.956;11.064;2023-11-19T09:00:31;5.57;;;1.83;;
12224;SDS011;6175;50.956;11.064;2023-11-19T09:02:59;6.57;;;1.65;;
12224;SDS011;6175;50.956;11.064;2023-11-19T09:05:27;3.63;;;1.83;;
12224;SDS011;6175;50.956;11.064;2023-11-19T09:07:54;3.47;;;1.45;;
12224;SDS011;6175;50.956;11.064;2023-11-19T09:10:21;4.55;;;2.00;;
12224;SDS011;6175;50.956;11.064;2023-11-19T09:12:48;5.00;;;1.98;;
12224;SDS011;6175;50.956;11.064;2023-11-19T09:15:15;6.10;;;1.90;;
12224;SDS011;6175;50.956;11.064;2023-11-19T09:17:43;5.00;;;2.05;;
12224;SDS011;6175;50.956;11.064;2023-11-19T09:20:12;4.82;;;1.77;;
12224;SDS011;6175;50.956;11.064;2023-11-19T09:22:40;9.20;;;2.35;;
12224;SDS011;6175;50.956;11.064;2023-11-19T09:25:07;4.93;;;1.77;;
12224;SDS011;6175;50.956;11.064;2023-11-19T09:27:35;6.88;;;2.05;;
12224;SDS011;6175;50.956;11.064;2023-11-19T09:30:02;5.47;;;2.17;;
12224;SDS011;6175;50.956;11.064;2023-11-19T09:32:30;9.57;;;3.03;;
12224;SDS011;6175;50.956;11.064;2023-11-19T09:34:57;6.97;;;1.98;;
12224;SDS011;6175;50.956;11.064;2023-11-19T09:37:27;8.65;;;2.38;;
12224;SDS011;6175;50.956;11.064;2023-11-19T09:39:54;8.88;;;2.47;;
12224;SDS011;6175;50.956;11.064;2023-11-19T09:42:21;7.97;;;2.22;;
12224;SDS011;6175;50.956;11.064;2023-11-19T09:44:48;8.20;;;2.67;;
12224;SDS011;6175;50.956;11.064;2023-11-19T09:47:16;8.65;;;2.40;;
12224;SDS011;6175;50.956;11.064;2023-11-19T09:49:45;7.72;;;2.20;;
12224;SDS011;6175;50.956;11.064;2023-11-19T09:52:12;9.20;;;2.45;;
12224;SDS011;6175;50.956;11.064;2023-11-19T09:54:41;8.65;;;1.90;;
12224;SDS011;6175;50.956;11.064;2023-11-19T09:57:08;7.68;;;2.20;;
12224;SDS011;6175;50.956;11.064;2023-11-19T09:59:37;6.35;;;2.28;;
12224;SDS011;6175;50.956;11.064;2023-11-19T10:02:06;7.63;;;2.53;;
12224;SDS011;6175;50.956;11.064;2023-11-19T10:04:34;9.73;;;2.72;;
12224;SDS011;6175;50.956;11.064;2023-11-19T10:07:03;6.65;;;2.20;;
12224;SDS011;6175;50.956;11.064;2023-11-19T10:09:30;6.70;;;2.17;;
12224;SDS011;6175;50.956;11.064;2023-11-19T10:11:59;9.55;;;2.10;;
12224;SDS011;6175;50.956;11.064;2023-11-19T10:14:26;8.77;;;2.72;;
12224;SDS011;6175;50.956;11.064;2023-11-19T10:16:56;7.25;;;2.60;;
12224;SDS011;6175;50.956;11.064;2023-11-19T10:19:24;7.47;;;2.45;;
12224;SDS011;6175;50.956;11.064;2023-11-19T10:21:51;6.03;;;2.10;;
12224;SDS011;6175;50.956;11.064;2023-11-19T10:24:25;8.07;;;2.50;;
12224;SDS011;6175;50.956;11.064;2023-11-19T10:26:59;10.85;;;3.00;;
12224;SDS011;6175;50.956;11.064;2023-11-19T10:29:29;7.75;;;2.30;;
12224;SDS011;6175;50.956;11.064;2023-11-19T10:31:56;6.28;;;2.33;;
12224;SDS011;6175;50.956;11.064;2023-11-19T10:34:24;8.23;;;2.70;;
12224;SDS011;6175;50.956;11.064;2023-11-19T10:36:52;6.35;;;2.25;;
12224;SDS011;6175;50.956;11.064;2023-11-19T10:39:19;8.45;;;2.25;;
12224;SDS011;6175;50.956;11.064;2023-11-19T10:41:48;9.20;;;2.28;;
12224;SDS011;6175;50.956;11.064;2023-11-19T10:47:01;6.65;;;2.03;;
12224;SDS011;6175;50.956;11.064;2023-11-19T10:49:28;8.98;;;2.22;;
12224;SDS011;6175;50.956;11.064;2023-11-19T10:51:55;6.00;;;2.22;;
12224;SDS011;6175;50.956;11.064;2023-11-19T10:54:24;6.72;;;2.25;;
12224;SDS011;6175;50.956;11.064;2023-11-19T10:56:53;3.97;;;1.98;;
12224;SDS011;6175;50.956;11.064;2023-11-19T10:59:21;7.82;;;2.38;;
12224;SDS011;6175;50.956;11.064;2023-11-19T11:01:50;6.53;;;2.20;;
12224;SDS011;6175;50.956;11.064;2023-11-19T11:04:22;9.38;;;2.67;;
12224;SDS011;6175;50.956;11.064;2023-11-19T11:06:50;6.60;;;2.42;;
12224;SDS011;6175;50.956;11.064;2023-11-19T11:09:18;7.53;;;2.38;;
12224;SDS011;6175;50.956;11.064;2023-11-19T11:11:46;7.93;;;2.30;;
12224;SDS011;6175;50.956;11.064;2023-11-19T11:14:13;9.57;;;2.63;;
12224;SDS011;6175;50.956;11.064;2023-11-19T11:16:41;7.30;;;2.85;;
12224;SDS011;6175;50.956;11.064;2023-11-19T11:19:10;8.27;;;2.85;;
12224;SDS011;6175;50.956;11.064;2023-11-19T11:21:38;6.88;;;2.50;;
12224;SDS011;6175;50.956;11.064;2023-11-19T11:24:23;6.13;;;2.58;;
12224;SDS011;6175;50.956;11.064;2023-11-19T11:27:24;9.25;;;2.92;;
12224;SDS011;6175;50.956;11.064;2023-11-19T11:30:07;8.75;;;2.45;;
12224;SDS011;6175;50.956;11.064;2023-11-19T11:32:45;9.20;;;3.13;;
12224;SDS011;6175;50.956;11.064;2023-11-19T11:35:27;7.35;;;3.00;;
12224;SDS011;6175;50.956;11.064;2023-11-19T11:38:00;9.75;;;2.22;;
12224;SDS011;6175;50.956;11.064;2023-11-19T11:40:30;6.88;;;2.15;;
12224;SDS011;6175;50.956;11.064;2023-11-19T11:42:57;7.38;;;2.28;;
12224;SDS011;6175;50.956;11.064;2023-11-19T11:45:35;8.40;;;2.45;;
12224;SDS011;6175;50.956;11.064;2023-11-19T11:48:11;8.05;;;2.65;;
12224;SDS011;6175;50.956;11.064;2023-11-19T11:51:01;9.45;;;2.58;;
12224;SDS011;6175;50.956;11.064;2023-11-19T11:53:28;7.45;;;2.40;;
12224;SDS011;6175;50.956;11.064;2023-11-19T11:55:57;9.13;;;2.30;;
12224;SDS011;6175;50.956;11.064;2023-11-19T11:58:29;8.23;;;2.30;;
12224;SDS011;6175;50.956;11.064;2023-11-19T12:00:57;6.53;;;2.40;;
12224;SDS011;6175;50.956;11.064;2023-11-19T12:03:26;5.53;;;2.35;;
12224;SDS011;6175;50.956;11.064;2023-11-19T12:05:55;8.88;;;2.53;;
12224;SDS011;6175;50.956;11.064;2023-11-19T12:08:26;6.68;;;2.80;;
12224;SDS011;6175;50.956;11.064;2023-11-19T12:10:54;11.10;;;2.50;;
12224;SDS011;6175;50.956;11.064;2023-11-19T12:13:23;7.07;;;2.40;;
12224;SDS011;6175;50.956;11.064;2023-11-19T12:16:09;8.50;;;2.88;;
12224;SDS011;6175;50.956;11.064;2023-11-19T12:18:38;7.40;;;2.60;;
12224;SDS011;6175;50.956;11.064;2023-11-19T12:21:08;8.73;;;2.78;;
12224;SDS011;6175;50.956;11.064;2023-11-19T12:23:45;8.85;;;2.63;;
12224;SDS011;6175;50.956;11.064;2023-11-19T12:29:06;10.45;;;2.63;;
12224;SDS011;6175;50.956;11.064;2023-11-19T12:31:33;8.98;;;2.40;;
12224;SDS011;6175;50.956;11.064;2023-11-19T12:34:09;6.60;;;2.75;;
12224;SDS011;6175;50.956;11.064;2023-11-19T12:36:40;6.53;;;2.20;;
12224;SDS011;6175;50.956;11.064;2023-11-19T12:39:08;7.60;;;2.22;;
12224;SDS011;6175;50.956;11.064;2023-11-19T12:41:50;8.23;;;2.85;;
12224;SDS011;6175;50.956;11.064;2023-11-19T12:44:18;10.02;;;2.75;;
12224;SDS011;6175;50.956;11.064;2023-11-19T12:46:45;6.72;;;2.22;;
12224;SDS011;6175;50.956;11.064;2023-11-19T12:49:12;8.43;;;2.47;;
12224;SDS011;6175;50.956;11.064;2023-11-19T12:51:41;8.15;;;2.50;;
12224;SDS011;6175;50.956;11.064;2023-11-19T12:54:08;5.88;;;2.33;;
12224;SDS011;6175;50.956;11.064;2023-11-19T12:56:35;7.72;;;2.63;;
12224;SDS011;6175;50.956;11.064;2023-11-19T12:59:10;5.90;;;2.42;;
12224;SDS011;6175;50.956;11.064;2023-11-19T13:01:38;4.40;;;2.40;;
12224;SDS011;6175;50.956;11.064;2023-11-19T13:04:15;8.10;;;2.45;;
12224;SDS011;6175;50.956;11.064;2023-11-19T13:06:45;7.10;;;2.30;;
12224;SDS011;6175;50.956;11.064;2023-11-19T13:09:21;7.07;;;2.45;;
12224;SDS011;6175;50.956;11.064;2023-11-19T13:11:49;8.02;;;2.97;;
12224;SDS011;6175;50.956;11.064;2023-11-19T13:14:17;9.70;;;2.70;;
12224;SDS011;6175;50.956;11.064;2023-11-19T13:16:44;12.40;;;2.80;;
12224;SDS011;6175;50.956;11.064;2023-11-19T13:19:12;9.13;;;2.67;;
12224;SDS011;6175;50.956;11.064;2023-11-19T13:21:41;8.25;;;2.95;;
12224;SDS011;6175;50.956;11.064;2023-11-19T13:24:12;13.50;;;2.90;;
12224;SDS011;6175;50.956;11.064;2023-11-19T13:26:39;8.90;;;2.80;;
12224;SDS011;6175;50.956;11.064;2023-11-19T13:29:06;12.60;;;3.38;;
12224;SDS011;6175;50.956;11.064;2023-11-19T13:31:35;6.18;;;2.72;;
12224;SDS011;6175;50.956;11.064;2023-11-19T13:34:02;11.23;;;3.20;;
12224;SDS011;6175;50.956;11.064;2023-11-19T13:36:32;7.88;;;2.35;;
12224;SDS011;6175;50.956;11.064;2023-11-19T13:38:59;7.95;;;2.80;;
12224;SDS011;6175;50.956;11.064;2023-11-19T13:41:28;8.25;;;2.50;;
12224;SDS011;6175;50.956;11.064;2023-11-19T13:43:55;8.00;;;2.53;;
12224;SDS011;6175;50.956;11.064;2023-11-19T13:46:22;6.85;;;2.63;;
12224;SDS011;6175;50.956;11.064;2023-11-19T13:48:49;8.07;;;2.45;;
12224;SDS011;6175;50.956;11.064;2023-11-19T13:51:16;9.48;;;2.88;;
12224;SDS011;6175;50.956;11.064;2023-11-19T13:53:44;11.13;;;3.25;;
12224;SDS011;6175;50.956;11.064;2023-11-19T13:56:11;10.20;;;3.05;;
12224;SDS011;6175;50.956;11.064;2023-11-19T13:58:40;9.10;;;2.88;;
12224;SDS011;6175;50.956;11.064;2023-11-19T14:01:07;10.60;;;2.53;;
12224;SDS011;6175;50.956;11.064;2023-11-19T14:03:34;12.23;;;2.72;;
12224;SDS011;6175;50.956;11.064;2023-11-19T14:06:01;7.10;;;2.50;;
12224;SDS011;6175;50.956;11.064;2023-11-19T14:08:28;7.70;;;2.95;;
12224;SDS011;6175;50.956;11.064;2023-11-19T14:10:55;8.43;;;2.67;;
12224;SDS011;6175;50.956;11.064;2023-11-19T14:13:23;7.95;;;3.03;;
12224;SDS011;6175;50.956;11.064;2023-11-19T14:15:51;8.63;;;2.70;;
12224;SDS011;6175;50.956;11.064;2023-11-19T14:18:18;8.48;;;2.83;;
12224;SDS011;6175;50.956;11.064;2023-11-19T14:20:46;13.10;;;3.78;;
12224;SDS011;6175;50.956;11.064;2023-11-19T14:23:13;10.57;;;3.35;;
12224;SDS011;6175;50.956;11.064;2023-11-19T14:25:40;9.77;;;3.03;;
12224;SDS011;6175;50.956;11.064;2023-11-19T14:28:07;12.52;;;2.97;;
12224;SDS011;6175;50.956;11.064;2023-11-19T14:30:35;14.05;;;3.22;;
12224;SDS011;6175;50.956;11.064;2023-11-19T14:33:03;8.77;;;2.72;;
12224;SDS011;6175;50.956;11.064;2023-11-19T14:35:31;8.10;;;3.22;;
12224;SDS011;6175;50.956;11.064;2023-11-19T14:37:59;8.80;;;3.03;;
12224;SDS011;6175;50.956;11.064;2023-11-19T14:40:29;10.13;;;2.75;;
12224;SDS011;6175;50.956;11.064;2023-11-19T14:42:57;9.27;;;2.90;;
12224;SDS011;6175;50.956;11.064;2023-11-19T14:45:24;9.45;;;3.25;;
12224;SDS011;6175;50.956;11.064;2023-11-19T14:47:51;10.15;;;3.00;;
12224;SDS011;6175;50.956;11.064;2023-11-19T14:50:21;10.60;;;2.85;;
12224;SDS011;6175;50.956;11.064;2023-11-19T14:52:49;8.90;;;2.72;;
12224;SDS011;6175;50.956;11.064;2023-11-19T14:55:16;11.02;;;2.85;;
12224;SDS011;6175;50.956;11.064;2023-11-19T14:57:43;11.35;;;3.10;;
12224;SDS011;6175;50.956;11.064;2023-11-19T15:00:10;16.33;;;4.50;;